Time;durP1;ratioP1;P1;durP2;ratioP2;P2;SDS_P1;SDS_P2;PMS_P1;PMS_P2;Temp;Humidity;BMP_temperature;BMP_pressure;BME280_temperature;BME280_humidity;BME280_pressure;Samples;Min_cycle;Max_cycle;Signal;HPM_P1;HPM_P2
2023/10/21 00:02:26;;;;;;;13.60;12.40;;;13.00;99.90;;;;;;4921768;29;20258;-81
2023/10/21 00:04:53;;;;;;;13.80;12.60;;;13.00;99.90;;;;;;4925907;29;20210;-81
2023/10/21 00:07:19;;;;;;;11.70;10.90;;;13.00;99.90;;;;;;4936452;29;20650;-81
2023/10/21 00:09:46;;;;;;;11.00;10.30;;;12.90;99.90;;;;;;4924341;29;20211;-81
2023/10/21 00:12:13;;;;;;;10.07;9.47;;;12.90;99.90;;;;;;4924587;29;20690;-82
2023/10/21 00:14:40;;;;;;;10.43;9.83;;;12.90;99.90;;;;;;4921327;29;20234;-81
2023/10/21 00:17:07;;;;;;;10.30;9.70;;;12.90;99.90;;;;;;4920748;29;20713;-81
2023/10/21 00:19:35;;;;;;;10.80;10.10;;;12.80;99.90;;;;;;4924943;29;20206;-81
2023/10/21 00:22:03;;;;;;;10.20;9.60;;;12.80;99.90;;;;;;4927253;29;20734;-81
2023/10/21 00:24:30;;;;;;;10.40;9.80;;;12.90;99.90;;;;;;4922547;29;20214;-81
2023/10/21 00:26:56;;;;;;;10.50;9.90;;;12.90;99.90;;;;;;4927069;29;20220;-81
2023/10/21 00:29:23;;;;;;;10.47;9.87;;;12.90;99.90;;;;;;4929242;29;20207;-81
2023/10/21 00:31:50;;;;;;;10.17;9.57;;;12.90;99.90;;;;;;4924170;29;20214;-81
2023/10/21 00:34:17;;;;;;;10.57;9.97;;;12.90;99.90;;;;;;4926783;29;20237;-81
2023/10/21 00:36:45;;;;;;;10.70;10.10;;;12.90;99.90;;;;;;4927339;29;20234;-81
2023/10/21 00:39:12;;;;;;;10.37;9.77;;;12.80;99.90;;;;;;4925170;29;20209;-81
2023/10/21 00:41:39;;;;;;;10.17;9.67;;;12.80;99.90;;;;;;4926527;29;20211;-81
2023/10/21 00:44:06;;;;;;;10.27;9.57;;;12.80;99.90;;;;;;4921267;29;20576;-81
2023/10/21 00:46:34;;;;;;;10.13;9.53;;;12.70;99.90;;;;;;4922336;29;20294;-81
2023/10/21 00:49:03;;;;;;;10.07;9.50;;;12.70;99.90;;;;;;4924189;29;20207;-81
2023/10/21 00:51:30;;;;;;;10.47;9.87;;;12.60;99.90;;;;;;4925652;29;20233;-81
2023/10/21 00:54:00;;;;;;;10.47;9.87;;;12.60;99.90;;;;;;4935646;29;20200;-81
2023/10/21 00:56:27;;;;;;;10.03;9.53;;;12.60;99.90;;;;;;4923451;29;20242;-81
2023/10/21 00:58:54;;;;;;;10.43;9.87;;;12.60;99.90;;;;;;4929158;29;20209;-81
2023/10/21 01:01:21;;;;;;;10.13;9.63;;;12.60;99.90;;;;;;4930374;29;20212;-81
2023/10/21 01:03:49;;;;;;;10.50;9.90;;;12.60;99.90;;;;;;4928804;29;20387;-81
2023/10/21 01:06:16;;;;;;;10.50;9.80;;;12.60;99.90;;;;;;4931118;29;20273;-81
2023/10/21 01:08:43;;;;;;;10.40;9.80;;;12.60;99.90;;;;;;4920833;29;20203;-82
2023/10/21 01:11:11;;;;;;;10.30;9.70;;;12.70;99.90;;;;;;4929956;29;20211;-81
2023/10/21 01:13:38;;;;;;;10.00;9.50;;;12.70;99.90;;;;;;4926306;29;20205;-81
2023/10/21 01:16:05;;;;;;;10.20;9.60;;;12.70;99.90;;;;;;4923241;29;20259;-81
2023/10/21 01:18:34;;;;;;;10.20;9.60;;;12.60;99.90;;;;;;4923725;29;20197;-81
2023/10/21 01:21:01;;;;;;;10.20;9.60;;;12.60;99.90;;;;;;4919179;29;20199;-81
2023/10/21 01:23:30;;;;;;;10.00;9.40;;;12.60;99.90;;;;;;4922297;29;20238;-82
2023/10/21 01:25:57;;;;;;;10.07;9.57;;;12.50;99.90;;;;;;4923893;29;20248;-81
2023/10/21 01:28:24;;;;;;;9.80;9.30;;;12.40;99.90;;;;;;4926370;29;20203;-80
2023/10/21 01:30:51;;;;;;;9.50;9.00;;;12.40;99.90;;;;;;4921826;29;20237;-81
2023/10/21 01:33:18;;;;;;;10.53;9.93;;;12.30;99.90;;;;;;4922879;29;20211;-81
2023/10/21 01:35:46;;;;;;;11.00;10.40;;;12.30;99.90;;;;;;4926585;29;20271;-81
2023/10/21 01:38:12;;;;;;;10.37;9.77;;;12.30;99.90;;;;;;4931350;29;20673;-81
2023/10/21 01:40:41;;;;;;;10.47;9.87;;;12.20;99.90;;;;;;4934863;29;20205;-80
2023/10/21 01:43:08;;;;;;;10.80;10.20;;;12.20;99.90;;;;;;4936135;29;20200;-81
2023/10/21 01:45:35;;;;;;;10.17;9.67;;;12.10;99.90;;;;;;4936023;29;20206;-81
2023/10/21 01:48:04;;;;;;;10.03;9.53;;;12.10;99.90;;;;;;4917926;29;20198;-81
2023/10/21 01:50:31;;;;;;;9.97;9.40;;;12.10;99.90;;;;;;4922416;29;20224;-81
2023/10/21 01:52:58;;;;;;;10.13;9.53;;;12.00;99.90;;;;;;4923718;29;20209;-81
2023/10/21 01:55:25;;;;;;;10.20;9.70;;;12.00;99.90;;;;;;4922626;29;20224;-81
2023/10/21 01:57:53;;;;;;;10.77;10.17;;;12.00;99.90;;;;;;4920106;29;20723;-81
2023/10/21 02:00:21;;;;;;;10.93;10.23;;;12.00;99.90;;;;;;4923899;29;20202;-81
2023/10/21 02:02:50;;;;;;;10.90;10.20;;;12.00;99.90;;;;;;4920455;29;20250;-81
2023/10/21 02:05:17;;;;;;;11.07;10.27;;;12.10;99.90;;;;;;4921287;29;20595;-81
2023/10/21 02:07:44;;;;;;;10.70;10.10;;;12.30;99.90;;;;;;4925591;29;20260;-81
2023/10/21 02:10:12;;;;;;;11.20;10.50;;;12.40;99.90;;;;;;4922957;29;20297;-81
2023/10/21 02:12:39;;;;;;;11.50;10.80;;;12.50;99.90;;;;;;4925284;29;20254;-80
2023/10/21 02:15:11;;;;;;;10.83;10.23;;;12.60;99.90;;;;;;4920481;29;20282;-81
2023/10/21 02:17:39;;;;;;;10.07;9.57;;;12.70;99.90;;;;;;4927176;29;20220;-81
2023/10/21 02:20:07;;;;;;;10.77;10.17;;;12.70;99.90;;;;;;4920360;29;20231;-81
2023/10/21 02:22:34;;;;;;;12.10;11.30;;;12.80;99.90;;;;;;4924556;29;20214;-81
2023/10/21 02:25:02;;;;;;;11.73;10.93;;;12.80;99.90;;;;;;4926006;29;20218;-81
2023/10/21 02:27:29;;;;;;;10.23;9.63;;;12.80;99.90;;;;;;4927734;29;20217;-81
2023/10/21 02:29:56;;;;;;;10.27;9.67;;;12.90;99.90;;;;;;4928286;29;20251;-81
2023/10/21 02:32:24;;;;;;;10.30;9.60;;;12.90;99.90;;;;;;4925945;29;20252;-81
2023/10/21 02:34:55;;;;;;;9.60;9.10;;;12.90;99.90;;;;;;4925852;29;20221;-81
2023/10/21 02:37:24;;;;;;;10.00;9.40;;;12.90;99.90;;;;;;4922602;29;20231;-81
2023/10/21 02:39:51;;;;;;;10.77;10.10;;;12.90;99.90;;;;;;4922435;29;20651;-81
2023/10/21 02:42:17;;;;;;;10.60;10.00;;;12.90;99.90;;;;;;4926492;29;20214;-81
2023/10/21 02:44:45;;;;;;;10.23;9.63;;;12.90;99.90;;;;;;4926220;29;20259;-82
2023/10/21 02:47:12;;;;;;;10.23;9.60;;;12.90;99.90;;;;;;4925592;29;20285;-81
2023/10/21 02:49:40;;;;;;;10.07;9.47;;;12.90;99.90;;;;;;4925518;29;20263;-78
2023/10/21 02:52:07;;;;;;;9.80;9.30;;;12.90;99.90;;;;;;4925433;29;20666;-79
2023/10/21 02:54:34;;;;;;;10.00;9.40;;;13.00;99.90;;;;;;4931180;29;20827;-81
2023/10/21 02:57:02;;;;;;;9.60;9.10;;;13.00;99.90;;;;;;4928293;29;20249;-79
2023/10/21 02:59:30;;;;;;;9.90;9.40;;;13.00;99.90;;;;;;4922484;29;20207;-80
2023/10/21 03:01:57;;;;;;;9.83;9.30;;;13.00;99.90;;;;;;4924509;29;20214;-79
2023/10/21 03:04:23;;;;;;;9.87;9.37;;;13.00;99.90;;;;;;4926124;29;20204;-79
2023/10/21 03:06:52;;;;;;;10.30;9.70;;;12.90;99.90;;;;;;4932771;29;20227;-79
2023/10/21 03:09:19;;;;;;;10.70;10.10;;;12.90;99.90;;;;;;4936269;29;20199;-81
2023/10/21 03:11:45;;;;;;;10.20;9.70;;;12.90;99.90;;;;;;4927721;29;20209;-81
2023/10/21 03:14:13;;;;;;;10.63;10.03;;;12.90;99.90;;;;;;4933005;29;20238;-81
2023/10/21 03:16:39;;;;;;;10.20;9.60;;;12.90;99.90;;;;;;4931979;29;20228;-81
2023/10/21 03:19:06;;;;;;;10.50;9.90;;;12.90;99.90;;;;;;4935672;29;20200;-81
2023/10/21 03:21:34;;;;;;;10.63;10.00;;;13.00;99.90;;;;;;4935446;29;20229;-79
2023/10/21 03:24:02;;;;;;;10.50;9.90;;;13.10;99.90;;;;;;4926390;29;20271;-81
2023/10/21 03:26:29;;;;;;;10.50;9.90;;;13.10;99.90;;;;;;4927661;29;20215;-82
2023/10/21 03:28:56;;;;;;;10.33;9.70;;;13.10;99.90;;;;;;4929888;29;20254;-82
2023/10/21 03:31:23;;;;;;;10.30;9.60;;;13.10;99.90;;;;;;4930746;29;20553;-80
2023/10/21 03:33:50;;;;;;;9.77;9.27;;;13.10;99.90;;;;;;4936555;29;20202;-78
2023/10/21 03:36:17;;;;;;;10.20;9.60;;;13.10;99.90;;;;;;4931904;29;20302;-79
2023/10/21 03:38:44;;;;;;;9.80;9.30;;;13.10;99.90;;;;;;4925202;29;20675;-79
2023/10/21 03:41:12;;;;;;;10.30;9.80;;;13.00;99.90;;;;;;4929373;29;20214;-78
2023/10/21 03:43:40;;;;;;;10.13;9.63;;;13.00;99.90;;;;;;4925622;29;20222;-78
2023/10/21 03:46:08;;;;;;;10.27;9.67;;;12.90;99.90;;;;;;4925949;29;20908;-79
2023/10/21 03:48:36;;;;;;;10.20;9.70;;;12.90;99.90;;;;;;4926609;29;20206;-77
2023/10/21 03:51:05;;;;;;;10.27;9.60;;;12.90;99.90;;;;;;4926096;29;20198;-78
2023/10/21 03:53:32;;;;;;;10.40;9.80;;;12.90;99.90;;;;;;4924533;29;20198;-78
2023/10/21 03:56:00;;;;;;;10.20;9.70;;;12.90;99.90;;;;;;4923317;29;20313;-78
2023/10/21 03:58:28;;;;;;;10.40;9.80;;;12.90;99.90;;;;;;4940180;29;20202;-77
2023/10/21 04:00:57;;;;;;;10.70;10.10;;;12.90;99.90;;;;;;4940592;29;20217;-78
2023/10/21 04:03:24;;;;;;;10.50;9.90;;;12.90;99.90;;;;;;4932053;29;20208;-78
2023/10/21 04:05:51;;;;;;;10.40;9.80;;;12.90;99.90;;;;;;4929267;29;20223;-78
2023/10/21 04:08:18;;;;;;;10.53;9.93;;;12.90;99.90;;;;;;4933621;29;20205;-78
2023/10/21 04:10:45;;;;;;;10.27;9.77;;;12.90;99.90;;;;;;4931137;29;20284;-77
2023/10/21 04:13:12;;;;;;;10.40;9.90;;;12.90;99.90;;;;;;4928262;29;20196;-78
2023/10/21 04:15:41;;;;;;;10.30;9.70;;;12.80;99.90;;;;;;4928388;29;20218;-78
2023/10/21 04:18:08;;;;;;;10.70;10.10;;;12.80;99.90;;;;;;4924464;29;20196;-77
2023/10/21 04:20:35;;;;;;;10.40;9.90;;;12.80;99.90;;;;;;4928541;29;20864;-78
2023/10/21 04:23:02;;;;;;;10.50;10.00;;;12.80;99.90;;;;;;4922449;29;20207;-78
2023/10/21 04:25:29;;;;;;;10.40;9.80;;;12.80;99.90;;;;;;4925855;29;20203;-77
2023/10/21 04:27:56;;;;;;;10.27;9.67;;;12.70;99.90;;;;;;4927827;29;20306;-78
2023/10/21 04:30:23;;;;;;;10.63;10.07;;;12.60;99.90;;;;;;4927905;29;20203;-78
2023/10/21 04:32:53;;;;;;;10.10;9.60;;;12.60;99.90;;;;;;4930097;29;20219;-78
2023/10/21 04:35:20;;;;;;;10.47;9.87;;;12.50;99.90;;;;;;4931369;29;20252;-78
2023/10/21 04:37:46;;;;;;;10.40;9.90;;;12.50;99.90;;;;;;4927096;29;20257;-77
2023/10/21 04:40:13;;;;;;;10.83;10.23;;;12.50;99.90;;;;;;4920352;29;20209;-77
2023/10/21 04:42:41;;;;;;;10.93;10.33;;;12.40;99.90;;;;;;4926297;29;20643;-77
2023/10/21 04:45:10;;;;;;;11.20;10.60;;;12.50;99.90;;;;;;4934540;29;20202;-78
2023/10/21 04:47:37;;;;;;;10.70;10.10;;;12.50;99.90;;;;;;4928421;29;20291;-78
2023/10/21 04:50:06;;;;;;;10.57;10.00;;;12.50;99.90;;;;;;4923506;29;20223;-77
2023/10/21 04:52:33;;;;;;;10.33;9.80;;;12.60;99.90;;;;;;4926514;29;20247;-77
2023/10/21 04:55:01;;;;;;;10.40;9.80;;;12.60;99.90;;;;;;4927333;29;20199;-78
2023/10/21 04:57:27;;;;;;;10.30;9.70;;;12.60;99.90;;;;;;4922125;29;20294;-78
2023/10/21 04:59:54;;;;;;;10.70;10.10;;;12.70;99.90;;;;;;4923454;29;20222;-78
2023/10/21 05:02:21;;;;;;;10.50;9.90;;;12.70;99.90;;;;;;4928251;29;20213;-78
2023/10/21 05:04:49;;;;;;;10.50;9.90;;;12.70;99.90;;;;;;4928914;29;20210;-78
2023/10/21 05:07:17;;;;;;;10.37;9.77;;;12.80;99.90;;;;;;4924802;29;20220;-78
2023/10/21 05:09:44;;;;;;;10.20;9.63;;;12.80;99.90;;;;;;4927359;29;20211;-78
2023/10/21 05:12:11;;;;;;;10.50;9.90;;;12.80;99.90;;;;;;4927424;29;20206;-79
2023/10/21 05:14:37;;;;;;;10.07;9.57;;;12.80;99.90;;;;;;4924772;29;20317;-79
2023/10/21 05:17:05;;;;;;;10.27;9.77;;;12.80;99.90;;;;;;4923222;29;20242;-78
2023/10/21 05:19:32;;;;;;;10.63;10.03;;;12.80;99.90;;;;;;4927398;29;20214;-78
2023/10/21 05:21:59;;;;;;;10.20;9.70;;;12.80;99.90;;;;;;4927969;29;20214;-78
2023/10/21 05:24:27;;;;;;;10.37;9.77;;;12.80;99.90;;;;;;4926672;29;20214;-78
2023/10/21 05:26:54;;;;;;;10.40;9.90;;;12.80;99.90;;;;;;4924666;29;20237;-79
2023/10/21 05:29:20;;;;;;;10.50;9.90;;;12.80;99.90;;;;;;4933954;29;20211;-79
2023/10/21 05:31:49;;;;;;;10.47;9.87;;;12.80;99.90;;;;;;4924574;29;20225;-78
2023/10/21 05:34:18;;;;;;;10.70;10.10;;;12.70;99.90;;;;;;4920937;29;20215;-78
2023/10/21 05:36:45;;;;;;;11.17;10.57;;;12.70;99.90;;;;;;4932766;29;20249;-79
2023/10/21 05:39:12;;;;;;;10.50;10.00;;;12.70;99.90;;;;;;4938238;29;20231;-78
2023/10/21 05:41:41;;;;;;;10.27;9.67;;;12.60;99.90;;;;;;4931419;29;20626;-79
2023/10/21 05:44:09;;;;;;;10.90;10.30;;;12.60;99.90;;;;;;4935805;29;20201;-78
2023/10/21 05:46:36;;;;;;;10.40;9.60;;;12.60;99.90;;;;;;4934343;29;20223;-79
2023/10/21 05:49:03;;;;;;;10.00;9.50;;;12.60;99.90;;;;;;4926432;29;20684;-78
2023/10/21 05:51:31;;;;;;;9.83;9.33;;;12.60;99.90;;;;;;4925315;29;20262;-78
2023/10/21 05:53:58;;;;;;;10.23;9.73;;;12.60;99.90;;;;;;4927937;29;20242;-78
2023/10/21 05:56:25;;;;;;;10.50;9.90;;;12.60;99.90;;;;;;4929800;29;20240;-77
2023/10/21 05:58:53;;;;;;;10.50;9.90;;;12.60;99.90;;;;;;4930911;29;20211;-79
2023/10/21 06:01:20;;;;;;;10.60;10.00;;;12.60;99.90;;;;;;4932309;29;20213;-78
2023/10/21 06:03:47;;;;;;;10.73;10.13;;;12.60;99.90;;;;;;4928534;29;20675;-78
2023/10/21 06:06:16;;;;;;;11.13;10.43;;;12.60;99.90;;;;;;4927892;29;20277;-78
2023/10/21 06:08:44;;;;;;;10.80;10.20;;;12.70;99.90;;;;;;4927004;29;20209;-78
2023/10/21 06:11:11;;;;;;;10.90;10.30;;;12.70;99.90;;;;;;4925485;29;20211;-78
2023/10/21 06:13:38;;;;;;;10.73;10.17;;;12.80;99.90;;;;;;4924612;29;20221;-77
2023/10/21 06:16:06;;;;;;;10.50;9.90;;;12.80;99.90;;;;;;4930407;29;20635;-78
2023/10/21 06:18:33;;;;;;;9.93;9.43;;;12.90;99.90;;;;;;4928122;29;20229;-77
2023/10/21 06:21:00;;;;;;;10.27;9.67;;;12.90;99.90;;;;;;4927460;29;20208;-78
2023/10/21 06:23:27;;;;;;;10.27;9.77;;;13.00;99.90;;;;;;4936389;29;20200;-78
2023/10/21 06:25:54;;;;;;;10.53;10.00;;;13.10;99.90;;;;;;4928309;29;20273;-77
2023/10/21 06:28:21;;;;;;;10.70;10.10;;;13.20;99.90;;;;;;4926327;29;20203;-78
2023/10/21 06:30:48;;;;;;;9.93;9.43;;;13.20;99.90;;;;;;4929210;29;20210;-78
2023/10/21 06:33:16;;;;;;;10.10;9.60;;;13.30;99.90;;;;;;4930179;29;20207;-79
2023/10/21 06:35:43;;;;;;;10.90;10.30;;;13.40;99.90;;;;;;4927655;29;20208;-78
2023/10/21 06:38:10;;;;;;;10.07;9.57;;;13.40;99.90;;;;;;4928561;29;20215;-78
2023/10/21 06:40:37;;;;;;;10.30;9.80;;;13.40;99.90;;;;;;4927708;29;20255;-79
2023/10/21 06:43:04;;;;;;;10.40;9.80;;;13.40;99.90;;;;;;4930609;29;20258;-78
2023/10/21 06:45:31;;;;;;;10.40;9.80;;;13.30;99.90;;;;;;4926953;29;20199;-78
2023/10/21 06:47:58;;;;;;;10.17;9.57;;;13.20;99.90;;;;;;4929217;29;20225;-78
2023/10/21 06:50:26;;;;;;;10.27;9.73;;;13.10;99.90;;;;;;4923894;29;20210;-78
2023/10/21 06:52:53;;;;;;;10.13;9.63;;;13.10;99.90;;;;;;4926676;29;20211;-79
2023/10/21 06:55:21;;;;;;;9.83;9.27;;;13.00;99.90;;;;;;4928677;29;20708;-78
2023/10/21 06:57:48;;;;;;;10.00;9.40;;;13.00;99.90;;;;;;4928388;29;20713;-78
2023/10/21 07:00:16;;;;;;;10.17;9.57;;;13.00;99.90;;;;;;4929585;29;20257;-78
2023/10/21 07:02:42;;;;;;;9.90;9.40;;;12.90;99.90;;;;;;4927718;29;20202;-79
2023/10/21 07:05:10;;;;;;;9.80;9.30;;;12.90;99.90;;;;;;4926302;29;20258;-78
2023/10/21 07:07:40;;;;;;;10.23;9.70;;;12.90;99.90;;;;;;4929096;29;20230;-78
2023/10/21 07:10:09;;;;;;;10.73;10.13;;;12.90;99.90;;;;;;4929800;29;20211;-78
2023/10/21 07:12:37;;;;;;;10.13;9.63;;;12.80;99.90;;;;;;4926864;29;20209;-78
2023/10/21 07:15:05;;;;;;;10.20;9.60;;;12.80;99.90;;;;;;4928412;29;20239;-78
2023/10/21 07:17:32;;;;;;;9.97;9.37;;;12.80;99.90;;;;;;4924672;29;20310;-81
2023/10/21 07:19:59;;;;;;;9.70;9.20;;;12.80;99.90;;;;;;4932079;29;20741;-81
2023/10/21 07:22:26;;;;;;;10.40;9.80;;;12.80;99.90;;;;;;4925767;29;20679;-83
2023/10/21 07:24:57;;;;;;;10.50;9.90;;;12.90;99.90;;;;;;4925979;29;20223;-82
2023/10/21 07:27:24;;;;;;;10.57;9.97;;;13.30;99.90;;;;;;4925602;29;20212;-80
2023/10/21 07:29:51;;;;;;;12.17;11.37;;;13.60;99.90;;;;;;4924560;29;20245;-80
2023/10/21 07:32:17;;;;;;;11.93;11.23;;;14.00;99.90;;;;;;4933251;29;20202;-81
2023/10/21 07:34:44;;;;;;;11.17;10.57;;;14.40;99.90;;;;;;4938317;29;20629;-81
2023/10/21 07:37:11;;;;;;;6.63;6.23;;;14.90;99.90;;;;;;4938083;28;20232;-80
2023/10/21 07:39:38;;;;;;;3.37;3.17;;;15.20;99.90;;;;;;4939120;29;20239;-79
2023/10/21 07:42:07;;;;;;;10.40;9.80;;;15.60;99.90;;;;;;4928976;29;20255;-79
2023/10/21 07:44:33;;;;;;;2.40;2.30;;;15.70;99.90;;;;;;4936739;29;20649;-80
2023/10/21 07:47:00;;;;;;;2.37;2.27;;;16.00;99.90;;;;;;4933836;29;20225;-81
2023/10/21 07:49:27;;;;;;;2.60;2.40;;;16.20;99.90;;;;;;4937434;29;20229;-81
2023/10/21 07:51:55;;;;;;;7.53;7.13;;;16.50;99.90;;;;;;4938996;29;20663;-81
2023/10/21 07:54:21;;;;;;;2.30;2.20;;;16.90;99.90;;;;;;4934865;29;20213;-81
2023/10/21 07:56:50;;;;;;;2.70;2.50;;;17.30;99.90;;;;;;4937541;29;20232;-80
2023/10/21 07:59:18;;;;;;;9.67;9.07;;;17.80;99.90;;;;;;4935250;29;20596;-78
2023/10/21 08:01:45;;;;;;;9.40;8.90;;;18.20;99.90;;;;;;4932253;29;20196;-79
2023/10/21 08:04:12;;;;;;;3.87;3.67;;;18.50;99.90;;;;;;4922805;29;20291;-81
2023/10/21 08:06:41;;;;;;;6.50;6.10;;;18.30;99.90;;;;;;4929870;29;20257;-81
2023/10/21 08:09:08;;;;;;;7.17;6.77;;;18.10;99.90;;;;;;4935242;29;20599;-80
2023/10/21 08:11:35;;;;;;;3.50;3.30;;;18.10;99.90;;;;;;4928386;29;20206;-80
2023/10/21 08:14:03;;;;;;;2.60;2.50;;;18.30;99.90;;;;;;4930134;29;20207;-81
2023/10/21 08:16:31;;;;;;;2.83;2.60;;;18.50;99.90;;;;;;4935608;29;20223;-81
2023/10/21 08:18:58;;;;;;;7.00;6.60;;;18.70;99.90;;;;;;4935241;29;20213;-79
2023/10/21 08:21:26;;;;;;;7.57;7.17;;;18.40;99.90;;;;;;4936469;29;20667;-79
2023/10/21 08:23:52;;;;;;;7.87;7.37;;;18.20;99.90;;;;;;4936412;29;20230;-80
2023/10/21 08:26:19;;;;;;;8.47;7.97;;;18.20;99.90;;;;;;4927752;29;20220;-78
2023/10/21 08:28:46;;;;;;;9.23;8.73;;;18.30;99.90;;;;;;4937608;29;20291;-83
2023/10/21 08:31:13;;;;;;;7.70;7.30;;;18.40;99.90;;;;;;4920561;29;20204;-83
2023/10/21 08:33:41;;;;;;;6.93;6.57;;;18.40;99.90;;;;;;4928641;29;20259;-79
2023/10/21 08:36:17;;;;;;;7.17;6.63;;;18.50;99.90;;;;;;4940256;29;20271;-84
2023/10/21 08:38:44;;;;;;;8.83;8.33;;;18.30;99.90;;;;;;4924607;29;20227;-79
2023/10/21 08:41:12;;;;;;;8.20;7.70;;;18.50;99.90;;;;;;4939931;29;20622;-82
2023/10/21 08:43:42;;;;;;;8.47;7.97;;;18.70;99.90;;;;;;4936108;29;20216;-79
2023/10/21 08:46:10;;;;;;;6.53;6.23;;;18.60;99.90;;;;;;4928202;29;20220;-80
2023/10/21 08:48:38;;;;;;;9.27;8.67;;;18.40;99.90;;;;;;4934397;29;20214;-78
2023/10/21 08:51:09;;;;;;;9.30;8.70;;;18.20;99.90;;;;;;4936690;29;20200;-81
2023/10/21 08:53:39;;;;;;;8.90;8.40;;;17.90;99.90;;;;;;4935442;29;20204;-77
2023/10/21 08:56:06;;;;;;;9.77;9.23;;;17.80;99.90;;;;;;4931642;29;20314;-77
2023/10/21 08:58:32;;;;;;;6.40;6.10;;;17.80;99.90;;;;;;4937692;29;20244;-77
2023/10/21 09:01:00;;;;;;;3.43;3.23;;;17.60;99.90;;;;;;4937405;29;20196;-77
2023/10/21 09:03:26;;;;;;;5.17;4.87;;;17.60;99.90;;;;;;4936163;29;20753;-77
2023/10/21 09:06:04;;;;;;;5.40;5.10;;;17.50;99.90;;;;;;4931516;29;20195;-77
2023/10/21 09:08:34;;;;;;;7.30;6.90;;;17.50;99.90;;;;;;4933602;29;20199;-78
2023/10/21 09:11:02;;;;;;;7.90;7.50;;;17.50;99.90;;;;;;4929953;29;20209;-78
2023/10/21 09:13:30;;;;;;;7.03;6.63;;;17.40;99.90;;;;;;4928431;29;20200;-77
2023/10/21 09:15:58;;;;;;;2.47;2.27;;;17.50;99.90;;;;;;4935227;29;20307;-77
2023/10/21 09:18:25;;;;;;;3.80;3.50;;;17.40;99.90;;;;;;4929792;29;20299;-77
2023/10/21 09:20:52;;;;;;;3.33;3.13;;;17.40;99.90;;;;;;4934120;29;20211;-77
2023/10/21 09:23:18;;;;;;;8.83;8.23;;;17.30;99.90;;;;;;4935846;29;20202;-77
2023/10/21 09:25:50;;;;;;;9.20;8.60;;;17.20;99.90;;;;;;4930751;29;20200;-77
2023/10/21 09:28:21;;;;;;;8.57;7.87;;;17.10;99.90;;;;;;4925923;29;20195;-78
2023/10/21 09:30:56;;;;;;;8.83;8.23;;;17.00;99.90;;;;;;4931430;29;20230;-79
2023/10/21 09:33:23;;;;;;;7.63;7.23;;;17.00;99.90;;;;;;4944603;29;20206;-78
2023/10/21 09:36:01;;;;;;;7.20;6.80;;;17.20;99.90;;;;;;4931582;29;20195;-78
2023/10/21 09:38:30;;;;;;;8.73;8.23;;;17.30;99.90;;;;;;4938480;29;20229;-78
2023/10/21 09:40:59;;;;;;;2.33;2.23;;;17.40;99.90;;;;;;4937359;29;20255;-77
2023/10/21 09:43:27;;;;;;;2.70;2.50;;;17.50;99.90;;;;;;4926776;29;20208;-78
2023/10/21 09:45:58;;;;;;;2.70;2.50;;;17.50;99.90;;;;;;4923390;29;20247;-79
2023/10/21 09:48:26;;;;;;;7.87;7.27;;;17.50;99.90;;;;;;4924131;29;20192;-80
2023/10/21 09:50:58;;;;;;;7.47;6.97;;;17.60;99.90;;;;;;4928736;29;20267;-81
2023/10/21 09:53:27;;;;;;;6.10;5.70;;;17.70;99.90;;;;;;4935583;29;20203;-80
2023/10/21 09:55:55;;;;;;;8.50;8.00;;;18.00;99.90;;;;;;4929846;29;20629;-80
2023/10/21 09:58:26;;;;;;;3.67;3.40;;;18.50;99.90;;;;;;4926461;29;20251;-81
2023/10/21 10:00:54;;;;;;;6.23;5.83;;;18.90;99.90;;;;;;4937454;29;20286;-80
2023/10/21 10:03:23;;;;;;;2.27;2.10;;;19.20;99.90;;;;;;4938884;29;20206;-79
2023/10/21 10:05:50;;;;;;;7.30;6.90;;;19.40;99.90;;;;;;4927636;29;20222;-80
2023/10/21 10:08:17;;;;;;;2.63;2.40;;;19.50;99.90;;;;;;4936282;29;20202;-78
2023/10/21 10:10:46;;;;;;;10.17;9.57;;;19.60;99.90;;;;;;4933716;29;20207;-81
2023/10/21 10:13:15;;;;;;;10.30;9.70;;;19.50;99.90;;;;;;4932336;29;20205;-80
2023/10/21 10:15:43;;;;;;;10.40;9.80;;;19.40;99.90;;;;;;4930215;29;20209;-80
2023/10/21 10:18:18;;;;;;;9.67;9.00;;;19.10;99.90;;;;;;4928868;29;20226;-80
2023/10/21 10:20:46;;;;;;;7.10;6.63;;;18.70;99.90;;;;;;4938427;29;20201;-82
2023/10/21 10:23:13;;;;;;;9.60;9.00;;;18.40;99.90;;;;;;4938763;29;20212;-81
2023/10/21 10:25:43;;;;;;;9.63;8.90;;;18.20;99.90;;;;;;4931012;29;20697;-81
2023/10/21 10:28:17;;;;;;;9.27;8.77;;;18.00;99.90;;;;;;4923639;29;20204;-83
2023/10/21 10:30:46;;;;;;;9.03;8.33;;;18.00;99.90;;;;;;4935858;29;20218;-82
2023/10/21 10:33:16;;;;;;;7.70;7.30;;;18.10;99.90;;;;;;4930689;29;20198;-83
2023/10/21 10:35:47;;;;;;;4.20;4.00;;;18.30;99.90;;;;;;4922793;29;20209;-82
2023/10/21 10:38:20;;;;;;;3.97;3.77;;;18.40;99.90;;;;;;4933476;29;20236;-84
2023/10/21 10:40:47;;;;;;;6.90;6.50;;;18.50;99.90;;;;;;4930870;29;20233;-84
2023/10/21 10:43:16;;;;;;;6.53;6.13;;;18.60;99.90;;;;;;4927419;29;20202;-84
2023/10/21 10:45:45;;;;;;;6.60;6.10;;;18.70;99.90;;;;;;4944124;29;20206;-83
2023/10/21 10:48:12;;;;;;;8.20;7.60;;;18.90;99.90;;;;;;4943186;29;20201;-83
2023/10/21 10:50:39;;;;;;;9.60;9.00;;;19.00;99.90;;;;;;4928852;29;20265;-83
2023/10/21 10:53:13;;;;;;;10.10;9.50;;;19.10;99.90;;;;;;4929807;29;20204;-83
2023/10/21 10:55:42;;;;;;;10.43;9.47;;;19.20;99.90;;;;;;4922707;29;20221;-83
2023/10/21 10:58:10;;;;;;;8.43;7.93;;;19.30;99.90;;;;;;4928336;29;20252;-83
2023/10/21 11:00:39;;;;;;;8.97;8.47;;;19.30;99.90;;;;;;4929283;29;20206;-83
2023/10/21 11:03:07;;;;;;;8.47;7.97;;;19.40;99.90;;;;;;4928520;29;20200;-82
2023/10/21 11:05:37;;;;;;;2.27;2.07;;;19.40;99.90;;;;;;4927574;29;20277;-82
2023/10/21 11:08:05;;;;;;;1.97;1.87;;;19.40;99.90;;;;;;4924689;29;20198;-83
2023/10/21 11:10:32;;;;;;;2.90;2.30;;;19.40;99.90;;;;;;4923424;29;20741;-82
2023/10/21 11:12:59;;;;;;;2.40;2.20;;;19.50;99.90;;;;;;4921269;29;20494;-83
2023/10/21 11:15:26;;;;;;;7.63;7.03;;;19.50;99.90;;;;;;4923955;29;20231;-82
2023/10/21 11:17:53;;;;;;;7.27;6.87;;;19.50;99.90;;;;;;4930970;29;20229;-83
2023/10/21 11:20:22;;;;;;;8.30;7.80;;;19.70;99.90;;;;;;4922475;29;20198;-82
2023/10/21 11:22:48;;;;;;;7.90;7.50;;;19.70;99.90;;;;;;4930798;29;20244;-79
2023/10/21 11:25:15;;;;;;;7.50;7.10;;;19.80;99.90;;;;;;4932721;29;20278;-77
2023/10/21 11:27:42;;;;;;;7.90;7.40;;;19.90;99.90;;;;;;4930695;29;20230;-79
2023/10/21 11:30:10;;;;;;;8.80;8.30;;;20.00;99.90;;;;;;4926406;29;20230;-79
2023/10/21 11:32:38;;;;;;;2.77;2.57;;;20.00;99.90;;;;;;4929365;29;20211;-79
2023/10/21 11:35:06;;;;;;;2.20;2.10;;;20.10;99.90;;;;;;4922389;29;20211;-79
2023/10/21 11:37:38;;;;;;;8.60;8.20;;;20.00;99.90;;;;;;4931745;29;20228;-78
2023/10/21 11:40:09;;;;;;;9.30;8.70;;;20.00;99.90;;;;;;4926764;29;20625;-78
2023/10/21 11:42:37;;;;;;;8.80;8.30;;;20.10;99.90;;;;;;4931384;29;20658;-79
2023/10/21 11:45:07;;;;;;;8.10;7.70;;;19.90;99.90;;;;;;4929100;29;20207;-78
2023/10/21 11:47:35;;;;;;;2.37;2.17;;;19.80;99.90;;;;;;4929809;29;20223;-83
2023/10/21 11:50:03;;;;;;;7.90;7.40;;;19.60;99.90;;;;;;4932141;29;20230;-84
2023/10/21 11:52:30;;;;;;;8.60;8.10;;;19.40;99.90;;;;;;4928754;29;20210;-84
2023/10/21 12:14:57;;;;;;;10.50;9.80;;;18.80;99.90;;;;;;4924505;29;20205;-82
2023/10/21 12:23:36;;;;;;;9.67;9.07;;;18.40;99.90;;;;;;4888301;29;20514;-82
2023/10/21 12:26:21;;;;;;;9.27;8.67;;;18.20;99.90;;;;;;4937124;29;20218;-84
2023/10/21 12:34:37;;;;;;;9.20;8.70;;;18.00;99.90;;;;;;4932156;29;20204;-81
2023/10/21 12:39:57;;;;;;;9.20;8.70;;;17.80;99.90;;;;;;4899351;29;20238;-82
2023/10/21 12:42:26;;;;;;;9.50;8.90;;;17.70;99.90;;;;;;4944293;29;20214;-83
2023/10/21 12:44:57;;;;;;;9.60;8.90;;;17.60;99.90;;;;;;4935154;29;20203;-83
2023/10/21 12:47:24;;;;;;;10.00;9.30;;;17.60;99.90;;;;;;4945209;29;20219;-83
2023/10/21 12:49:55;;;;;;;9.50;8.90;;;17.60;99.90;;;;;;4942042;29;20221;-85
2023/10/21 12:52:22;;;;;;;9.67;9.03;;;17.60;99.90;;;;;;4938486;29;20215;-82
2023/10/21 12:54:49;;;;;;;9.47;8.87;;;17.60;99.90;;;;;;4936484;29;20199;-83
2023/10/21 12:57:16;;;;;;;9.70;9.00;;;17.60;99.90;;;;;;4940525;29;20229;-83
2023/10/21 12:59:43;;;;;;;9.03;8.47;;;17.60;99.90;;;;;;4942240;29;20227;-83
2023/10/21 13:02:11;;;;;;;8.80;8.30;;;17.60;99.90;;;;;;4934412;29;20208;-83
2023/10/21 13:04:40;;;;;;;9.17;8.60;;;17.60;99.90;;;;;;4941301;29;20197;-82
2023/10/21 13:07:08;;;;;;;9.20;8.60;;;17.50;99.90;;;;;;4927890;29;20312;-80
2023/10/21 13:09:38;;;;;;;9.10;8.50;;;17.50;99.90;;;;;;4926491;29;20675;-81
2023/10/21 13:12:14;;;;;;;8.80;8.20;;;17.50;99.90;;;;;;4926729;29;20204;-82
2023/10/21 13:14:41;;;;;;;8.67;8.17;;;17.60;99.90;;;;;;4938362;29;20705;-81
2023/10/21 13:17:08;;;;;;;8.73;8.23;;;17.50;99.90;;;;;;4932998;29;20290;-81
2023/10/21 13:19:37;;;;;;;9.27;8.77;;;17.50;99.90;;;;;;4932349;29;20232;-86